createdAt,value
2022-11-18T00:00:49.078Z,42.67
2022-11-18T00:03:53.282Z,43.73
2022-11-18T00:06:56.262Z,39.87
2022-11-18T00:09:59.248Z,42.47
2022-11-18T00:13:25.198Z,40.93
2022-11-18T00:16:29.487Z,43.40
2022-11-18T00:19:35.291Z,38.83
2022-11-18T00:22:38.353Z,41.57
2022-11-18T00:25:41.788Z,41.00
2022-11-18T00:28:45.635Z,37.23
2022-11-18T00:31:50.250Z,35.93
2022-11-18T00:34:53.222Z,40.67
2022-11-18T00:37:56.703Z,42.40
2022-11-18T00:41:03.945Z,35.10
2022-11-18T00:44:09.702Z,34.43
2022-11-18T00:47:14.123Z,37.87
2022-11-18T00:50:17.833Z,34.13
2022-11-18T00:53:25.959Z,36.93
2022-11-18T00:56:29.064Z,38.07
2022-11-18T00:59:32.386Z,36.70
2022-11-18T01:02:36.662Z,34.33
2022-11-18T01:05:40.354Z,35.90
2022-11-18T01:08:43.329Z,33.27
2022-11-18T01:12:03.993Z,32.93
2022-11-18T01:15:08.569Z,34.83
2022-11-18T01:18:12.848Z,33.70
2022-11-18T01:21:16.375Z,40.47
2022-11-18T01:24:19.400Z,33.10
2022-11-18T01:27:22.693Z,35.57
2022-11-18T01:30:27.554Z,31.97
2022-11-18T01:33:32.285Z,36.83
2022-11-18T01:36:35.433Z,34.77
2022-11-18T01:39:38.489Z,32.93
2022-11-18T01:42:41.508Z,33.07
2022-11-18T01:45:46.077Z,33.70
2022-11-18T01:48:55.523Z,34.30
2022-11-18T01:51:59.579Z,32.30
2022-11-18T01:55:10.955Z,37.77
2022-11-18T01:58:19.291Z,31.27
2022-11-18T02:01:24.151Z,33.30
2022-11-18T02:04:29.013Z,32.17
2022-11-18T02:07:45.226Z,37.00
2022-11-18T02:10:48.840Z,35.87
2022-11-18T02:13:51.897Z,35.67
2022-11-18T02:17:08.963Z,34.47
2022-11-18T02:20:31.055Z,31.60
2022-11-18T02:24:04.167Z,34.50
2022-11-18T02:27:35.983Z,34.13
2022-11-18T02:30:46.734Z,33.10
2022-11-18T02:35:01.502Z,32.47
2022-11-18T02:38:08.537Z,33.03
2022-11-18T02:41:19.147Z,35.40
2022-11-18T02:44:25.758Z,32.43
2022-11-18T02:47:32.775Z,33.63
2022-11-18T02:50:37.986Z,34.93
2022-11-18T02:53:43.231Z,33.90
2022-11-18T02:56:48.094Z,32.97
2022-11-18T02:59:51.134Z,34.87
2022-11-18T03:02:58.616Z,34.77
2022-11-18T03:06:09.832Z,38.23
2022-11-18T03:09:23.735Z,38.57
2022-11-18T03:12:39.769Z,37.10
2022-11-18T03:15:52.102Z,35.30
2022-11-18T03:19:13.089Z,38.20
2022-11-18T03:22:25.082Z,36.87
2022-11-18T03:25:35.846Z,39.43
2022-11-18T03:28:47.667Z,40.77
2022-11-18T03:31:55.824Z,39.80
2022-11-18T03:35:11.178Z,37.93
2022-11-18T03:38:17.234Z,43.57
2022-11-18T03:41:22.670Z,40.47
2022-11-18T03:44:31.989Z,40.73
2022-11-18T03:47:40.216Z,40.23
2022-11-18T03:50:49.190Z,42.80
2022-11-18T03:53:57.730Z,45.10
2022-11-18T03:57:07.102Z,42.37
2022-11-18T04:00:13.153Z,41.10
2022-11-18T04:03:19.178Z,41.80
2022-11-18T04:06:32.078Z,45.37
2022-11-18T04:09:39.717Z,41.50
2022-11-18T04:12:48.296Z,43.63
2022-11-18T04:15:51.903Z,40.87
2022-11-18T04:18:55.012Z,44.67
2022-11-18T04:21:59.261Z,43.90
2022-11-18T04:25:02.180Z,47.80
2022-11-18T04:28:06.326Z,45.73
2022-11-18T04:31:09.461Z,46.23
2022-11-18T04:34:12.452Z,54.30
2022-11-18T04:37:16.706Z,47.10
2022-11-18T04:40:19.923Z,47.97
2022-11-18T04:43:22.869Z,49.57
2022-11-18T04:46:25.818Z,52.87
2022-11-18T04:49:30.603Z,50.23
2022-11-18T04:52:36.273Z,50.17
2022-11-18T04:55:39.192Z,51.63
2022-11-18T04:58:42.101Z,55.60
2022-11-18T05:01:45.201Z,52.60
2022-11-18T05:04:48.159Z,55.20
2022-11-18T05:07:53.471Z,56.23
2022-11-18T05:11:16.657Z,53.83
2022-11-18T05:14:18.846Z,53.60
2022-11-18T05:17:22.052Z,54.63
2022-11-18T05:20:25.083Z,54.57
2022-11-18T05:23:29.359Z,54.73
2022-11-18T05:26:33.304Z,53.50
2022-11-18T05:29:36.235Z,55.70
2022-11-18T05:32:39.406Z,59.43
2022-11-18T05:35:42.363Z,53.77
2022-11-18T05:38:47.242Z,55.07
2022-11-18T05:42:07.755Z,59.03
2022-11-18T05:45:11.083Z,55.47
2022-11-18T05:48:14.297Z,54.10
2022-11-18T05:51:17.245Z,50.77
2022-11-18T05:54:22.757Z,54.13
2022-11-18T05:57:26.202Z,51.57
2022-11-18T06:00:30.216Z,46.50
2022-11-18T06:03:38.462Z,52.23
2022-11-18T06:06:41.719Z,55.03
2022-11-18T06:09:50.331Z,48.50
2022-11-18T06:12:57.569Z,45.07
2022-11-18T06:16:00.695Z,41.23
2022-11-18T06:19:04.462Z,41.27
2022-11-18T06:22:08.517Z,33.63
2022-11-18T06:25:12.854Z,38.27
2022-11-18T06:28:18.073Z,38.87
2022-11-18T06:31:21.211Z,33.53
2022-11-18T06:34:24.789Z,36.13
2022-11-18T06:37:28.025Z,35.13
2022-11-18T06:40:34.897Z,37.90
2022-11-18T06:43:41.612Z,37.70
2022-11-18T06:46:56.574Z,34.77
2022-11-18T06:50:01.160Z,37.20
2022-11-18T06:53:04.155Z,34.37
2022-11-18T06:56:12.067Z,36.20
2022-11-18T06:59:23.396Z,37.03
2022-11-18T07:02:26.593Z,36.40
2022-11-18T07:05:29.549Z,37.20
2022-11-18T07:08:32.619Z,34.83
2022-11-18T07:11:38.268Z,36.80
2022-11-18T07:14:41.234Z,34.57
2022-11-18T07:17:44.180Z,39.37
2022-11-18T07:20:47.117Z,36.10
2022-11-18T07:23:50.350Z,41.83
2022-11-18T07:26:55.348Z,36.83
2022-11-18T07:29:58.350Z,33.60
2022-11-18T07:33:01.469Z,35.30
2022-11-18T07:36:06.310Z,39.90
2022-11-18T07:39:09.375Z,37.53
2022-11-18T07:42:13.814Z,33.17
2022-11-18T07:45:16.980Z,32.70
2022-11-18T07:48:20.043Z,38.53
2022-11-18T07:51:26.279Z,35.57
2022-11-18T07:54:29.250Z,39.90
2022-11-18T07:57:34.066Z,37.10
2022-11-18T08:00:37.155Z,40.37
2022-11-18T08:03:41.377Z,35.37
2022-11-18T08:06:44.682Z,40.90
2022-11-18T08:09:47.851Z,41.43
2022-11-18T08:12:52.161Z,36.13
2022-11-18T08:15:56.230Z,39.20
2022-11-18T08:19:00.854Z,35.53
2022-11-18T08:22:03.937Z,33.50
2022-11-18T08:25:08.644Z,33.00
2022-11-18T08:28:14.686Z,33.73
2022-11-18T08:31:20.942Z,34.30
2022-11-18T08:34:24.251Z,33.83
2022-11-18T08:37:27.172Z,32.93
2022-11-18T08:40:32.142Z,37.23
2022-11-18T08:43:36.566Z,35.50
2022-11-18T08:46:39.726Z,37.20
2022-11-18T08:49:42.765Z,32.27
2022-11-18T08:52:45.985Z,32.90
2022-11-18T08:55:53.046Z,35.77
2022-11-18T08:59:01.513Z,33.70
2022-11-18T09:02:04.594Z,34.00
2022-11-18T09:05:08.478Z,33.73
2022-11-18T09:08:11.425Z,31.33
2022-11-18T09:11:17.799Z,34.87
2022-11-18T09:17:45.097Z,34.30
2022-11-18T09:20:56.047Z,32.87
2022-11-18T09:23:59.338Z,32.50
2022-11-18T09:27:04.323Z,30.73
2022-11-18T09:30:10.624Z,27.47
2022-11-18T09:33:17.899Z,27.37
2022-11-18T09:36:26.317Z,25.50
2022-11-18T09:39:29.263Z,29.47
2022-11-18T09:42:51.210Z,24.07
2022-11-18T09:46:00.967Z,20.13
2022-11-18T09:49:15.579Z,20.73
2022-11-18T09:52:23.736Z,21.37
2022-11-18T09:55:27.106Z,27.40
2022-11-18T09:58:36.113Z,21.17
2022-11-18T10:01:40.497Z,24.47
2022-11-18T10:04:45.812Z,18.37
2022-11-18T10:08:04.696Z,18.73
2022-11-18T10:11:14.981Z,16.03
2022-11-18T10:14:29.801Z,15.33
2022-11-18T10:17:47.851Z,17.73
2022-11-18T10:20:58.303Z,16.53
2022-11-18T10:24:06.858Z,17.33
2022-11-18T10:27:13.454Z,18.83
2022-11-18T10:30:20.006Z,17.23
2022-11-18T10:33:29.489Z,16.33
2022-11-18T10:36:34.263Z,15.90
2022-11-18T10:39:52.134Z,22.00
2022-11-18T10:42:55.238Z,18.33
2022-11-18T10:45:58.250Z,22.23
2022-11-18T10:49:16.370Z,18.70
2022-11-18T10:52:19.316Z,21.57
2022-11-18T10:55:24.900Z,23.37
2022-11-18T10:58:33.371Z,19.43
2022-11-18T11:01:37.125Z,25.77
2022-11-18T11:04:42.556Z,21.03
2022-11-18T11:07:45.975Z,18.33
2022-11-18T11:10:57.695Z,19.77
2022-11-18T11:14:23.610Z,21.83
2022-11-18T11:17:32.443Z,23.53
2022-11-18T11:20:37.793Z,19.17
2022-11-18T11:23:41.170Z,17.43
2022-11-18T11:30:21.407Z,16.93
2022-11-18T11:33:33.167Z,22.00
2022-11-18T11:36:48.861Z,32.13
2022-11-18T11:40:21.023Z,17.23
2022-11-18T11:43:36.575Z,23.00
2022-11-18T11:47:11.688Z,21.37
2022-11-18T11:50:20.997Z,17.57
2022-11-18T11:53:58.891Z,18.40
2022-11-18T11:57:06.844Z,19.67
2022-11-18T12:00:14.217Z,17.03
2022-11-18T12:03:40.955Z,18.33
2022-11-18T12:06:46.764Z,17.97
2022-11-18T12:10:09.221Z,19.13
2022-11-18T12:13:37.428Z,17.07
2022-11-18T12:16:47.957Z,16.87
2022-11-18T12:19:50.939Z,17.07
2022-11-18T12:23:14.633Z,13.57
2022-11-18T12:26:35.713Z,12.43
2022-11-18T12:29:55.221Z,11.23
2022-11-18T12:32:58.766Z,14.30
2022-11-18T12:36:01.728Z,14.23
2022-11-18T12:39:58.079Z,11.90
2022-11-18T12:43:20.557Z,13.10
2022-11-18T12:46:54.857Z,13.13
2022-11-18T12:50:14.996Z,12.20
2022-11-18T12:53:36.771Z,11.73
2022-11-18T12:56:40.019Z,11.30
2022-11-18T12:59:44.381Z,11.23
2022-11-18T13:02:53.151Z,13.67
2022-11-18T13:06:13.653Z,11.37
2022-11-18T13:09:20.620Z,11.20
2022-11-18T13:12:28.583Z,12.23
2022-11-18T13:15:50.571Z,12.13
2022-11-18T13:18:55.277Z,10.57
2022-11-18T13:22:19.267Z,12.77
2022-11-18T13:25:26.771Z,11.27
2022-11-18T13:28:39.933Z,10.67
2022-11-18T13:31:58.641Z,13.53
2022-11-18T13:35:13.326Z,10.80
2022-11-18T13:38:28.114Z,12.57
2022-11-18T13:41:34.487Z,11.33
2022-11-18T13:44:39.469Z,11.63
2022-11-18T13:47:49.503Z,11.17
2022-11-18T13:50:55.235Z,10.47
2022-11-18T13:53:58.354Z,10.03
2022-11-18T13:57:01.375Z,10.87
2022-11-18T14:00:09.071Z,10.93
2022-11-18T14:03:27.343Z,11.37
2022-11-18T14:06:32.860Z,8.90
2022-11-18T14:09:35.887Z,11.57
2022-11-18T14:12:38.943Z,10.13
2022-11-18T14:15:44.000Z,10.17
2022-11-18T14:18:51.588Z,10.47
2022-11-18T14:21:54.564Z,8.53
2022-11-18T14:25:00.095Z,10.13
2022-11-18T14:28:14.105Z,10.47
2022-11-18T14:31:26.695Z,10.20
2022-11-18T14:34:31.058Z,10.20
2022-11-18T14:37:34.187Z,9.40
2022-11-18T14:40:37.191Z,11.83
2022-11-18T14:43:40.317Z,10.43
2022-11-18T14:46:46.089Z,9.93
2022-11-18T14:49:50.699Z,10.87
2022-11-18T14:52:53.692Z,8.97
2022-11-18T14:56:01.313Z,8.50
2022-11-18T14:59:04.326Z,9.00
2022-11-18T15:02:15.457Z,7.83
2022-11-18T15:05:19.722Z,7.67
2022-11-18T15:08:24.083Z,7.77
2022-11-18T15:11:27.041Z,8.47
2022-11-18T15:14:29.999Z,8.20
2022-11-18T15:17:35.780Z,10.43
2022-11-18T15:20:40.163Z,11.50
2022-11-18T15:23:43.648Z,20.67
2022-11-18T15:26:47.967Z,15.43
2022-11-18T15:29:51.118Z,14.33
2022-11-18T15:32:54.087Z,24.13
2022-11-18T15:35:58.375Z,21.33
2022-11-18T15:39:01.353Z,11.47
2022-11-18T15:42:04.401Z,17.03
2022-11-18T15:45:08.642Z,20.73
2022-11-18T15:48:11.665Z,34.97
2022-11-18T15:51:16.198Z,22.03
2022-11-18T15:54:20.439Z,14.47
2022-11-18T15:57:28.201Z,10.73
2022-11-18T16:00:31.169Z,13.50
2022-11-18T16:03:35.504Z,8.00
2022-11-18T16:06:43.331Z,9.30
2022-11-18T16:10:03.708Z,9.57
2022-11-18T16:13:06.657Z,11.67
2022-11-18T16:16:19.013Z,12.63
2022-11-18T16:19:25.154Z,11.60
2022-11-18T16:22:29.445Z,9.90
2022-11-18T16:25:32.557Z,8.57
2022-11-18T16:28:35.499Z,8.30
2022-11-18T16:31:42.306Z,10.60
2022-11-18T16:34:45.242Z,8.83
2022-11-18T16:37:49.505Z,12.33
2022-11-18T16:40:56.555Z,8.20
2022-11-18T16:44:00.070Z,10.47
2022-11-18T16:47:05.353Z,9.53
2022-11-18T16:50:11.064Z,10.97
2022-11-18T16:53:15.775Z,8.93
2022-11-18T16:56:18.727Z,8.60
2022-11-18T16:59:23.937Z,9.50
2022-11-18T17:02:30.253Z,13.73
2022-11-18T17:05:35.348Z,17.17
2022-11-18T17:08:39.723Z,16.53
2022-11-18T17:11:42.682Z,15.87
2022-11-18T17:14:45.695Z,12.40
2022-11-18T17:17:48.622Z,16.53
2022-11-18T17:20:51.950Z,20.50
2022-11-18T17:23:56.700Z,17.47
2022-11-18T17:26:59.739Z,25.33
2022-11-18T17:30:02.715Z,23.87
2022-11-18T17:33:05.781Z,32.07
2022-11-18T17:36:11.533Z,40.17
2022-11-18T17:39:17.492Z,35.93
2022-11-18T17:42:23.318Z,33.60
2022-11-18T17:45:26.278Z,28.67
2022-11-18T17:48:32.701Z,24.43
2022-11-18T17:51:35.647Z,22.67
2022-11-18T17:54:40.348Z,27.77
2022-11-18T17:57:43.286Z,22.53
2022-11-18T18:00:46.321Z,20.90
2022-11-18T18:03:50.579Z,31.60
2022-11-18T18:06:54.865Z,29.23
2022-11-18T18:09:59.267Z,23.83
2022-11-18T18:13:20.148Z,20.20
2022-11-18T18:16:23.357Z,24.77
2022-11-18T18:19:26.291Z,24.10
2022-11-18T18:22:29.368Z,24.47
2022-11-18T18:25:35.649Z,31.03
2022-11-18T18:28:38.921Z,35.60
2022-11-18T18:31:41.854Z,37.70
2022-11-18T18:34:45.188Z,37.23
2022-11-18T18:37:48.229Z,33.83
2022-11-18T18:40:52.603Z,29.80
2022-11-18T18:43:56.594Z,26.30
2022-11-18T18:46:58.706Z,25.80
2022-11-18T18:50:01.795Z,24.50
2022-11-18T18:53:04.909Z,21.23
2022-11-18T18:56:09.928Z,20.93
2022-11-18T18:59:13.100Z,19.53
2022-11-18T19:02:16.213Z,21.07
2022-11-18T19:05:19.209Z,28.87
2022-11-18T19:08:22.368Z,29.03
2022-11-18T19:11:41.138Z,28.30
2022-11-18T19:14:44.319Z,30.37
2022-11-18T19:17:47.980Z,30.83
2022-11-18T19:20:51.050Z,29.73
2022-11-18T19:23:54.255Z,34.77
2022-11-18T19:26:58.926Z,33.37
2022-11-18T19:30:02.160Z,34.67
2022-11-18T19:33:05.570Z,36.60
2022-11-18T19:36:10.256Z,36.23
2022-11-18T19:39:14.446Z,30.77
2022-11-18T19:42:18.833Z,33.67
2022-11-18T19:45:22.281Z,36.03
2022-11-18T19:48:26.702Z,44.43
2022-11-18T19:51:30.770Z,40.60
2022-11-18T19:54:33.748Z,39.10
2022-11-18T19:57:38.009Z,31.70
2022-11-18T20:00:41.077Z,32.53
2022-11-18T20:03:46.663Z,34.80
2022-11-18T20:06:49.908Z,30.30
2022-11-18T20:09:53.142Z,26.77
2022-11-18T20:12:57.697Z,29.10
2022-11-18T20:16:02.757Z,24.40
2022-11-18T20:19:10.692Z,24.50
2022-11-18T20:22:14.027Z,25.77
2022-11-18T20:25:17.942Z,26.80
2022-11-18T20:28:22.651Z,30.73
2022-11-18T20:31:27.081Z,28.30
2022-11-18T20:34:30.141Z,26.17
2022-11-18T20:37:33.151Z,27.53
2022-11-18T20:40:36.279Z,30.00
2022-11-18T20:43:41.326Z,33.47
2022-11-18T20:46:44.272Z,28.10
2022-11-18T20:49:47.413Z,30.47
2022-11-18T20:52:50.533Z,29.60
2022-11-18T20:55:53.645Z,32.50
2022-11-18T20:58:58.506Z,33.07
2022-11-18T21:02:01.970Z,28.77
2022-11-18T21:05:07.908Z,32.40
2022-11-18T21:08:11.109Z,34.23
2022-11-18T21:11:15.692Z,39.97
2022-11-18T21:14:24.315Z,36.10
2022-11-18T21:17:27.654Z,33.10
2022-11-18T21:20:48.513Z,24.07
2022-11-18T21:23:55.245Z,24.13
2022-11-18T21:26:59.776Z,23.57
2022-11-18T21:30:04.525Z,22.83
2022-11-18T21:33:07.810Z,21.93
2022-11-18T21:36:11.020Z,21.17
2022-11-18T21:39:14.535Z,19.20
2022-11-18T21:42:17.782Z,17.30
2022-11-18T21:45:25.327Z,17.37
2022-11-18T21:48:28.412Z,20.67
2022-11-18T21:51:32.207Z,21.07
2022-11-18T21:54:36.672Z,21.93
2022-11-18T21:57:42.560Z,19.73
2022-11-18T22:00:46.910Z,18.97
2022-11-18T22:03:55.303Z,21.17
2022-11-18T22:06:58.896Z,18.57
2022-11-18T22:10:02.016Z,18.73
2022-11-18T22:13:07.466Z,17.13
2022-11-18T22:16:15.328Z,16.20
2022-11-18T22:19:18.476Z,15.67
2022-11-18T22:22:21.816Z,17.70
2022-11-18T22:25:24.868Z,14.20
2022-11-18T22:28:28.343Z,21.53
2022-11-18T22:31:32.872Z,19.50
2022-11-18T22:34:36.253Z,16.37
2022-11-18T22:37:39.467Z,17.10
2022-11-18T22:40:42.613Z,15.93
2022-11-18T22:43:44.622Z,16.23
2022-11-18T22:46:48.916Z,17.63
2022-11-18T22:49:56.114Z,20.97
2022-11-18T22:52:59.741Z,21.50
2022-11-18T22:56:04.826Z,21.10
2022-11-18T22:59:07.786Z,22.37
2022-11-18T23:02:13.564Z,19.37
2022-11-18T23:05:16.777Z,21.00
2022-11-18T23:08:19.855Z,22.67
2022-11-18T23:11:39.574Z,17.77
2022-11-18T23:14:42.604Z,20.17
2022-11-18T23:17:46.906Z,17.53
2022-11-18T23:20:49.938Z,20.97
2022-11-18T23:23:52.916Z,23.37
2022-11-18T23:26:55.866Z,19.70
2022-11-18T23:29:58.796Z,19.30
2022-11-18T23:33:03.997Z,18.80
2022-11-18T23:36:09.006Z,20.97
2022-11-18T23:39:12.641Z,23.23
2022-11-18T23:42:15.658Z,20.57
2022-11-18T23:45:18.774Z,18.47
2022-11-18T23:48:24.809Z,19.60
2022-11-18T23:51:28.297Z,18.87
2022-11-18T23:54:31.297Z,25.13
2022-11-18T23:57:34.327Z,22.07
